sensor_id;sensor_type;location;lat;lon;timestamp;temperature;humidity
975;DHT22;6115;49.296;10.602;2023-11-19T00:01:07;6.20;83.00
975;DHT22;6115;49.296;10.602;2023-11-19T00:06:08;6.30;83.10
975;DHT22;6115;49.296;10.602;2023-11-19T00:11:10;6.20;83.10
975;DHT22;6115;49.296;10.602;2023-11-19T00:16:11;6.20;83.20
975;DHT22;6115;49.296;10.602;2023-11-19T00:21:12;6.20;83.20
975;DHT22;6115;49.296;10.602;2023-11-19T00:26:13;6.20;83.30
975;DHT22;6115;49.296;10.602;2023-11-19T00:31:15;6.20;83.30
975;DHT22;6115;49.296;10.602;2023-11-19T00:36:15;6.20;83.80
975;DHT22;6115;49.296;10.602;2023-11-19T00:41:16;6.20;84.10
975;DHT22;6115;49.296;10.602;2023-11-19T00:46:17;6.30;84.40
975;DHT22;6115;49.296;10.602;2023-11-19T00:51:17;6.40;84.50
975;DHT22;6115;49.296;10.602;2023-11-19T00:56:18;6.50;84.40
975;DHT22;6115;49.296;10.602;2023-11-19T01:01:19;6.50;84.30
975;DHT22;6115;49.296;10.602;2023-11-19T01:06:30;6.50;84.30
975;DHT22;6115;49.296;10.602;2023-11-19T01:11:31;6.50;84.30
975;DHT22;6115;49.296;10.602;2023-11-19T01:16:32;6.60;84.40
975;DHT22;6115;49.296;10.602;2023-11-19T01:21:32;6.70;85.20
975;DHT22;6115;49.296;10.602;2023-11-19T01:26:33;6.80;84.50
975;DHT22;6115;49.296;10.602;2023-11-19T01:31:33;6.80;84.50
975;DHT22;6115;49.296;10.602;2023-11-19T01:36:34;6.90;84.70
975;DHT22;6115;49.296;10.602;2023-11-19T01:41:35;6.90;84.40
975;DHT22;6115;49.296;10.602;2023-11-19T01:46:36;6.90;84.40
975;DHT22;6115;49.296;10.602;2023-11-19T01:51:38;7.00;84.50
975;DHT22;6115;49.296;10.602;2023-11-19T01:56:40;7.10;84.40
975;DHT22;6115;49.296;10.602;2023-11-19T02:01:41;7.10;84.40
975;DHT22;6115;49.296;10.602;2023-11-19T02:06:43;7.20;84.40
975;DHT22;6115;49.296;10.602;2023-11-19T02:11:43;7.20;84.10
975;DHT22;6115;49.296;10.602;2023-11-19T02:16:44;7.20;84.10
975;DHT22;6115;49.296;10.602;2023-11-19T02:21:45;7.20;84.10
975;DHT22;6115;49.296;10.602;2023-11-19T02:26:55;7.30;84.10
975;DHT22;6115;49.296;10.602;2023-11-19T02:31:59;7.30;83.90
975;DHT22;6115;49.296;10.602;2023-11-19T02:37:00;7.30;83.90
975;DHT22;6115;49.296;10.602;2023-11-19T02:42:00;7.30;83.90
975;DHT22;6115;49.296;10.602;2023-11-19T02:47:01;7.40;84.10
975;DHT22;6115;49.296;10.602;2023-11-19T02:52:04;7.40;84.00
975;DHT22;6115;49.296;10.602;2023-11-19T02:57:06;7.50;84.10
975;DHT22;6115;49.296;10.602;2023-11-19T03:02:08;7.60;84.20
975;DHT22;6115;49.296;10.602;2023-11-19T03:07:12;7.60;84.30
975;DHT22;6115;49.296;10.602;2023-11-19T03:12:13;7.60;84.50
975;DHT22;6115;49.296;10.602;2023-11-19T03:17:14;7.70;84.70
975;DHT22;6115;49.296;10.602;2023-11-19T03:22:14;7.80;84.80
975;DHT22;6115;49.296;10.602;2023-11-19T03:27:15;7.90;84.90
975;DHT22;6115;49.296;10.602;2023-11-19T03:32:16;7.90;84.90
975;DHT22;6115;49.296;10.602;2023-11-19T03:37:16;7.90;85.20
975;DHT22;6115;49.296;10.602;2023-11-19T03:42:19;7.90;85.40
975;DHT22;6115;49.296;10.602;2023-11-19T03:47:21;7.90;85.80
975;DHT22;6115;49.296;10.602;2023-11-19T03:52:21;8.10;86.10
975;DHT22;6115;49.296;10.602;2023-11-19T03:57:22;8.10;86.20
975;DHT22;6115;49.296;10.602;2023-11-19T04:02:22;8.30;86.60
975;DHT22;6115;49.296;10.602;2023-11-19T04:07:24;8.40;87.20
975;DHT22;6115;49.296;10.602;2023-11-19T04:12:25;8.50;87.10
975;DHT22;6115;49.296;10.602;2023-11-19T04:17:25;8.60;87.30
975;DHT22;6115;49.296;10.602;2023-11-19T04:22:26;8.70;87.70
975;DHT22;6115;49.296;10.602;2023-11-19T04:27:26;8.80;88.10
975;DHT22;6115;49.296;10.602;2023-11-19T04:32:27;8.90;88.20
975;DHT22;6115;49.296;10.602;2023-11-19T04:37:27;9.00;88.30
975;DHT22;6115;49.296;10.602;2023-11-19T04:42:28;9.10;88.30
975;DHT22;6115;49.296;10.602;2023-11-19T04:47:29;9.20;88.40
975;DHT22;6115;49.296;10.602;2023-11-19T04:52:30;9.20;88.40
975;DHT22;6115;49.296;10.602;2023-11-19T04:57:30;9.30;88.50
975;DHT22;6115;49.296;10.602;2023-11-19T05:02:34;9.40;88.90
975;DHT22;6115;49.296;10.602;2023-11-19T05:07:34;9.40;89.20
975;DHT22;6115;49.296;10.602;2023-11-19T05:12:35;9.40;89.30
975;DHT22;6115;49.296;10.602;2023-11-19T05:17:35;9.50;89.30
975;DHT22;6115;49.296;10.602;2023-11-19T05:22:37;9.60;89.30
975;DHT22;6115;49.296;10.602;2023-11-19T05:27:38;9.60;89.40
975;DHT22;6115;49.296;10.602;2023-11-19T05:32:39;9.70;89.00
975;DHT22;6115;49.296;10.602;2023-11-19T05:37:39;9.70;89.20
975;DHT22;6115;49.296;10.602;2023-11-19T05:42:41;9.70;89.50
975;DHT22;6115;49.296;10.602;2023-11-19T05:47:41;9.70;89.40
975;DHT22;6115;49.296;10.602;2023-11-19T05:52:42;9.80;89.50
975;DHT22;6115;49.296;10.602;2023-11-19T05:57:43;9.80;89.70
975;DHT22;6115;49.296;10.602;2023-11-19T06:02:45;9.80;89.90
975;DHT22;6115;49.296;10.602;2023-11-19T06:07:45;9.80;89.80
975;DHT22;6115;49.296;10.602;2023-11-19T06:12:46;9.80;90.30
975;DHT22;6115;49.296;10.602;2023-11-19T06:17:47;10.00;89.70
975;DHT22;6115;49.296;10.602;2023-11-19T06:22:48;10.00;88.90
975;DHT22;6115;49.296;10.602;2023-11-19T06:27:50;10.00;89.00
975;DHT22;6115;49.296;10.602;2023-11-19T06:32:51;10.00;89.10
975;DHT22;6115;49.296;10.602;2023-11-19T06:37:51;10.10;89.20
975;DHT22;6115;49.296;10.602;2023-11-19T06:42:52;10.10;89.00
975;DHT22;6115;49.296;10.602;2023-11-19T06:47:52;10.20;89.20
975;DHT22;6115;49.296;10.602;2023-11-19T06:52:53;10.20;89.30
975;DHT22;6115;49.296;10.602;2023-11-19T06:57:54;10.30;89.30
975;DHT22;6115;49.296;10.602;2023-11-19T07:02:55;10.30;89.20
975;DHT22;6115;49.296;10.602;2023-11-19T07:07:55;10.30;89.30
975;DHT22;6115;49.296;10.602;2023-11-19T07:12:56;10.30;89.30
975;DHT22;6115;49.296;10.602;2023-11-19T07:17:58;10.30;89.40
975;DHT22;6115;49.296;10.602;2023-11-19T07:22:59;10.40;89.40
975;DHT22;6115;49.296;10.602;2023-11-19T07:28:01;10.50;89.60
975;DHT22;6115;49.296;10.602;2023-11-19T07:33:05;10.50;89.70
975;DHT22;6115;49.296;10.602;2023-11-19T07:38:05;10.60;89.60
975;DHT22;6115;49.296;10.602;2023-11-19T07:43:06;10.70;89.60
975;DHT22;6115;49.296;10.602;2023-11-19T07:48:07;10.80;89.60
975;DHT22;6115;49.296;10.602;2023-11-19T07:53:08;10.80;89.50
975;DHT22;6115;49.296;10.602;2023-11-19T07:58:10;10.80;89.30
975;DHT22;6115;49.296;10.602;2023-11-19T08:03:10;10.90;89.10
975;DHT22;6115;49.296;10.602;2023-11-19T08:08:11;10.90;89.70
975;DHT22;6115;49.296;10.602;2023-11-19T08:13:12;11.00;89.10
975;DHT22;6115;49.296;10.602;2023-11-19T08:18:12;11.00;89.10
975;DHT22;6115;49.296;10.602;2023-11-19T08:23:13;11.10;89.20
975;DHT22;6115;49.296;10.602;2023-11-19T08:28:14;11.20;90.00
975;DHT22;6115;49.296;10.602;2023-11-19T08:33:14;11.20;89.30
975;DHT22;6115;49.296;10.602;2023-11-19T08:38:15;11.20;89.30
975;DHT22;6115;49.296;10.602;2023-11-19T08:43:16;11.30;89.40
975;DHT22;6115;49.296;10.602;2023-11-19T08:48:16;11.40;88.90
975;DHT22;6115;49.296;10.602;2023-11-19T08:53:17;11.50;88.40
975;DHT22;6115;49.296;10.602;2023-11-19T08:58:17;11.50;87.90
975;DHT22;6115;49.296;10.602;2023-11-19T09:03:18;11.80;88.20
975;DHT22;6115;49.296;10.602;2023-11-19T09:08:19;12.00;87.30
975;DHT22;6115;49.296;10.602;2023-11-19T09:13:19;12.10;86.60
975;DHT22;6115;49.296;10.602;2023-11-19T09:18:20;12.20;85.70
975;DHT22;6115;49.296;10.602;2023-11-19T09:23:20;12.30;84.90
975;DHT22;6115;49.296;10.602;2023-11-19T09:28:21;12.30;84.10
975;DHT22;6115;49.296;10.602;2023-11-19T09:33:22;12.40;83.70
975;DHT22;6115;49.296;10.602;2023-11-19T09:38:22;12.20;83.10
975;DHT22;6115;49.296;10.602;2023-11-19T09:43:23;12.00;84.10
975;DHT22;6115;49.296;10.602;2023-11-19T09:48:24;11.70;85.20
975;DHT22;6115;49.296;10.602;2023-11-19T09:53:26;11.60;86.00
975;DHT22;6115;49.296;10.602;2023-11-19T09:58:26;11.70;87.20
975;DHT22;6115;49.296;10.602;2023-11-19T10:03:32;11.70;87.70
975;DHT22;6115;49.296;10.602;2023-11-19T10:08:33;11.70;87.90
975;DHT22;6115;49.296;10.602;2023-11-19T10:13:35;12.00;87.70
975;DHT22;6115;49.296;10.602;2023-11-19T10:18:44;12.50;87.20
975;DHT22;6115;49.296;10.602;2023-11-19T10:23:48;12.80;84.40
975;DHT22;6115;49.296;10.602;2023-11-19T10:28:50;13.40;82.80
975;DHT22;6115;49.296;10.602;2023-11-19T10:33:51;13.60;80.50
975;DHT22;6115;49.296;10.602;2023-11-19T10:38:56;13.50;77.40
975;DHT22;6115;49.296;10.602;2023-11-19T10:43:58;13.50;76.90
975;DHT22;6115;49.296;10.602;2023-11-19T10:48:59;13.40;75.30
975;DHT22;6115;49.296;10.602;2023-11-19T10:54:04;13.20;75.70
975;DHT22;6115;49.296;10.602;2023-11-19T10:59:06;13.10;75.70
975;DHT22;6115;49.296;10.602;2023-11-19T11:04:14;12.90;75.50
975;DHT22;6115;49.296;10.602;2023-11-19T11:09:16;12.70;75.60
975;DHT22;6115;49.296;10.602;2023-11-19T11:14:18;12.80;75.60
975;DHT22;6115;49.296;10.602;2023-11-19T11:19:20;13.00;75.70
975;DHT22;6115;49.296;10.602;2023-11-19T11:24:54;13.20;74.20
975;DHT22;6115;49.296;10.602;2023-11-19T11:30:24;13.30;72.80
975;DHT22;6115;49.296;10.602;2023-11-19T11:40:33;14.10;72.00
975;DHT22;6115;49.296;10.602;2023-11-19T11:45:39;14.20;70.10
975;DHT22;6115;49.296;10.602;2023-11-19T11:50:51;14.10;69.80
975;DHT22;6115;49.296;10.602;2023-11-19T11:55:54;13.90;67.50
975;DHT22;6115;49.296;10.602;2023-11-19T12:01:01;13.80;68.00
975;DHT22;6115;49.296;10.602;2023-11-19T12:06:02;13.70;66.30
975;DHT22;6115;49.296;10.602;2023-11-19T12:11:04;13.80;65.30
975;DHT22;6115;49.296;10.602;2023-11-19T12:21:07;14.20;63.30
975;DHT22;6115;49.296;10.602;2023-11-19T12:26:21;14.40;63.50
975;DHT22;6115;49.296;10.602;2023-11-19T12:31:30;14.20;62.10
975;DHT22;6115;49.296;10.602;2023-11-19T12:36:31;14.00;62.30
975;DHT22;6115;49.296;10.602;2023-11-19T12:41:32;13.90;62.10
975;DHT22;6115;49.296;10.602;2023-11-19T12:46:34;14.00;61.20
975;DHT22;6115;49.296;10.602;2023-11-19T12:51:35;13.60;61.90
975;DHT22;6115;49.296;10.602;2023-11-19T12:56:35;13.70;62.90
975;DHT22;6115;49.296;10.602;2023-11-19T13:01:38;13.90;62.80
975;DHT22;6115;49.296;10.602;2023-11-19T13:06:45;14.10;61.50
975;DHT22;6115;49.296;10.602;2023-11-19T13:11:46;14.20;62.60
975;DHT22;6115;49.296;10.602;2023-11-19T13:16:47;14.30;62.20
975;DHT22;6115;49.296;10.602;2023-11-19T13:21:48;14.30;61.10
975;DHT22;6115;49.296;10.602;2023-11-19T13:26:48;14.20;59.90
975;DHT22;6115;49.296;10.602;2023-11-19T13:31:49;14.40;59.40
975;DHT22;6115;49.296;10.602;2023-11-19T13:36:50;14.60;57.30
975;DHT22;6115;49.296;10.602;2023-11-19T13:41:50;14.50;55.70
975;DHT22;6115;49.296;10.602;2023-11-19T13:46:51;14.40;55.70
975;DHT22;6115;49.296;10.602;2023-11-19T13:51:51;14.20;56.30
975;DHT22;6115;49.296;10.602;2023-11-19T13:56:57;13.80;57.10
975;DHT22;6115;49.296;10.602;2023-11-19T14:01:58;13.40;57.80
975;DHT22;6115;49.296;10.602;2023-11-19T14:07:02;13.40;57.80
975;DHT22;6115;49.296;10.602;2023-11-19T14:12:03;13.20;58.30
975;DHT22;6115;49.296;10.602;2023-11-19T14:17:04;13.20;59.00
975;DHT22;6115;49.296;10.602;2023-11-19T14:22:05;13.30;59.00
975;DHT22;6115;49.296;10.602;2023-11-19T14:27:06;13.30;58.60
975;DHT22;6115;49.296;10.602;2023-11-19T14:32:06;13.20;59.20
975;DHT22;6115;49.296;10.602;2023-11-19T14:37:07;13.20;59.10
975;DHT22;6115;49.296;10.602;2023-11-19T14:42:07;13.30;59.80
975;DHT22;6115;49.296;10.602;2023-11-19T14:47:09;13.30;59.00
975;DHT22;6115;49.296;10.602;2023-11-19T14:52:10;13.20;58.40
975;DHT22;6115;49.296;10.602;2023-11-19T14:57:11;13.10;58.70
975;DHT22;6115;49.296;10.602;2023-11-19T15:02:11;13.00;59.10
975;DHT22;6115;49.296;10.602;2023-11-19T15:07:12;12.80;59.70
975;DHT22;6115;49.296;10.602;2023-11-19T15:12:13;12.70;60.50
975;DHT22;6115;49.296;10.602;2023-11-19T15:17:14;12.70;60.80
975;DHT22;6115;49.296;10.602;2023-11-19T15:22:15;12.50;61.10
975;DHT22;6115;49.296;10.602;2023-11-19T15:27:15;12.60;61.70
975;DHT22;6115;49.296;10.602;2023-11-19T15:32:17;12.50;62.40
975;DHT22;6115;49.296;10.602;2023-11-19T15:37:18;12.60;61.80
975;DHT22;6115;49.296;10.602;2023-11-19T15:42:19;12.50;62.50
975;DHT22;6115;49.296;10.602;2023-11-19T15:47:20;12.60;62.90
975;DHT22;6115;49.296;10.602;2023-11-19T15:52:24;12.60;63.50
975;DHT22;6115;49.296;10.602;2023-11-19T15:57:26;12.60;64.00
975;DHT22;6115;49.296;10.602;2023-11-19T16:02:27;12.50;63.90
975;DHT22;6115;49.296;10.602;2023-11-19T16:07:28;12.50;63.90
975;DHT22;6115;49.296;10.602;2023-11-19T16:12:30;12.50;63.80
975;DHT22;6115;49.296;10.602;2023-11-19T16:17:31;12.40;63.50
975;DHT22;6115;49.296;10.602;2023-11-19T16:22:32;12.40;63.90
975;DHT22;6115;49.296;10.602;2023-11-19T16:27:32;12.40;64.10
975;DHT22;6115;49.296;10.602;2023-11-19T16:32:48;12.30;64.60
975;DHT22;6115;49.296;10.602;2023-11-19T16:37:49;12.20;64.00
975;DHT22;6115;49.296;10.602;2023-11-19T16:42:50;12.20;63.60
975;DHT22;6115;49.296;10.602;2023-11-19T16:47:50;12.10;63.60
975;DHT22;6115;49.296;10.602;2023-11-19T16:52:52;12.00;63.30
975;DHT22;6115;49.296;10.602;2023-11-19T16:57:53;12.00;63.30
975;DHT22;6115;49.296;10.602;2023-11-19T17:02:54;11.90;63.30
975;DHT22;6115;49.296;10.602;2023-11-19T17:07:55;11.90;63.30
975;DHT22;6115;49.296;10.602;2023-11-19T17:12:55;11.90;63.30
975;DHT22;6115;49.296;10.602;2023-11-19T17:17:56;12.00;63.50
975;DHT22;6115;49.296;10.602;2023-11-19T17:22:56;11.90;64.10
975;DHT22;6115;49.296;10.602;2023-11-19T17:27:57;11.80;64.10
975;DHT22;6115;49.296;10.602;2023-11-19T17:32:57;11.80;64.60
975;DHT22;6115;49.296;10.602;2023-11-19T17:37:58;11.70;64.80
975;DHT22;6115;49.296;10.602;2023-11-19T17:42:59;11.60;65.70
975;DHT22;6115;49.296;10.602;2023-11-19T17:48:00;11.70;65.80
975;DHT22;6115;49.296;10.602;2023-11-19T17:53:00;11.90;66.10
975;DHT22;6115;49.296;10.602;2023-11-19T17:58:01;11.70;65.80
975;DHT22;6115;49.296;10.602;2023-11-19T18:03:02;11.80;66.00
975;DHT22;6115;49.296;10.602;2023-11-19T18:08:03;11.90;66.10
975;DHT22;6115;49.296;10.602;2023-11-19T18:13:05;11.90;66.10
975;DHT22;6115;49.296;10.602;2023-11-19T18:18:07;11.80;66.00
975;DHT22;6115;49.296;10.602;2023-11-19T18:23:09;11.80;66.40
975;DHT22;6115;49.296;10.602;2023-11-19T18:28:09;11.80;66.40
975;DHT22;6115;49.296;10.602;2023-11-19T18:33:10;11.80;66.20
975;DHT22;6115;49.296;10.602;2023-11-19T18:38:11;11.70;65.80
975;DHT22;6115;49.296;10.602;2023-11-19T18:43:12;11.70;65.80
975;DHT22;6115;49.296;10.602;2023-11-19T18:48:13;11.70;65.80
975;DHT22;6115;49.296;10.602;2023-11-19T18:53:15;11.70;65.80
975;DHT22;6115;49.296;10.602;2023-11-19T18:58:16;11.70;65.40
975;DHT22;6115;49.296;10.602;2023-11-19T19:03:17;11.70;64.80
975;DHT22;6115;49.296;10.602;2023-11-19T19:08:22;11.70;64.60
975;DHT22;6115;49.296;10.602;2023-11-19T19:13:22;11.90;64.50
975;DHT22;6115;49.296;10.602;2023-11-19T19:18:23;11.70;62.00
975;DHT22;6115;49.296;10.602;2023-11-19T19:23:24;11.30;63.00
975;DHT22;6115;49.296;10.602;2023-11-19T19:28:24;10.80;64.00
975;DHT22;6115;49.296;10.602;2023-11-19T19:33:25;10.70;64.80
975;DHT22;6115;49.296;10.602;2023-11-19T19:38:26;10.50;65.20
975;DHT22;6115;49.296;10.602;2023-11-19T19:43:26;10.50;65.90
975;DHT22;6115;49.296;10.602;2023-11-19T19:48:27;10.40;65.90
975;DHT22;6115;49.296;10.602;2023-11-19T19:53:28;10.40;65.90
975;DHT22;6115;49.296;10.602;2023-11-19T19:58:29;10.40;66.20
975;DHT22;6115;49.296;10.602;2023-11-19T20:03:29;10.30;67.00
975;DHT22;6115;49.296;10.602;2023-11-19T20:08:31;10.20;66.80
975;DHT22;6115;49.296;10.602;2023-11-19T20:13:32;10.30;66.90
975;DHT22;6115;49.296;10.602;2023-11-19T20:18:32;10.20;66.60
975;DHT22;6115;49.296;10.602;2023-11-19T20:23:33;10.30;66.50
975;DHT22;6115;49.296;10.602;2023-11-19T20:28:34;10.30;66.30
975;DHT22;6115;49.296;10.602;2023-11-19T20:33:34;10.30;66.30
975;DHT22;6115;49.296;10.602;2023-11-19T20:38:35;10.20;66.00
975;DHT22;6115;49.296;10.602;2023-11-19T20:43:37;10.20;66.20
975;DHT22;6115;49.296;10.602;2023-11-19T20:48:37;10.10;66.30
975;DHT22;6115;49.296;10.602;2023-11-19T20:53:41;10.10;65.50
975;DHT22;6115;49.296;10.602;2023-11-19T20:58:42;10.10;65.20
975;DHT22;6115;49.296;10.602;2023-11-19T21:03:43;10.20;64.80
975;DHT22;6115;49.296;10.602;2023-11-19T21:08:43;10.10;64.80
975;DHT22;6115;49.296;10.602;2023-11-19T21:13:44;9.90;66.10
975;DHT22;6115;49.296;10.602;2023-11-19T21:18:44;9.90;66.40
975;DHT22;6115;49.296;10.602;2023-11-19T21:23:45;9.90;66.10
975;DHT22;6115;49.296;10.602;2023-11-19T21:28:47;9.80;65.70
975;DHT22;6115;49.296;10.602;2023-11-19T21:33:47;9.90;65.20
975;DHT22;6115;49.296;10.602;2023-11-19T21:38:48;9.80;65.00
975;DHT22;6115;49.296;10.602;2023-11-19T21:43:48;9.80;65.00
975;DHT22;6115;49.296;10.602;2023-11-19T21:48:49;9.70;65.00
975;DHT22;6115;49.296;10.602;2023-11-19T21:53:50;9.70;65.00
975;DHT22;6115;49.296;10.602;2023-11-19T21:58:50;9.80;64.90
975;DHT22;6115;49.296;10.602;2023-11-19T22:03:51;9.80;64.70
975;DHT22;6115;49.296;10.602;2023-11-19T22:08:51;9.80;64.80
975;DHT22;6115;49.296;10.602;2023-11-19T22:13:52;9.80;64.90
975;DHT22;6115;49.296;10.602;2023-11-19T22:18:52;9.80;64.90
975;DHT22;6115;49.296;10.602;2023-11-19T22:23:53;9.80;64.80
975;DHT22;6115;49.296;10.602;2023-11-19T22:28:54;9.80;64.60
975;DHT22;6115;49.296;10.602;2023-11-19T22:33:54;9.90;64.20
975;DHT22;6115;49.296;10.602;2023-11-19T22:38:55;9.90;64.00
975;DHT22;6115;49.296;10.602;2023-11-19T22:43:56;9.80;63.80
975;DHT22;6115;49.296;10.602;2023-11-19T22:48:57;9.90;63.30
975;DHT22;6115;49.296;10.602;2023-11-19T22:53:57;9.90;63.10
975;DHT22;6115;49.296;10.602;2023-11-19T22:58:58;9.90;62.60
975;DHT22;6115;49.296;10.602;2023-11-19T23:03:59;10.00;61.20
975;DHT22;6115;49.296;10.602;2023-11-19T23:08:59;10.00;61.00
975;DHT22;6115;49.296;10.602;2023-11-19T23:14:00;10.00;61.00
975;DHT22;6115;49.296;10.602;2023-11-19T23:19:03;10.00;60.70
975;DHT22;6115;49.296;10.602;2023-11-19T23:24:04;10.10;60.40
975;DHT22;6115;49.296;10.602;2023-11-19T23:29:05;10.00;60.20
975;DHT22;6115;49.296;10.602;2023-11-19T23:34:07;10.00;60.30
975;DHT22;6115;49.296;10.602;2023-11-19T23:39:07;10.00;60.20
975;DHT22;6115;49.296;10.602;2023-11-19T23:44:09;10.00;60.20
975;DHT22;6115;49.296;10.602;2023-11-19T23:49:10;9.90;61.70
975;DHT22;6115;49.296;10.602;2023-11-19T23:54:12;9.90;61.80
975;DHT22;6115;49.296;10.602;2023-11-19T23:59:12;9.90;62.10
